Time;durP1;ratioP1;P1;durP2;ratioP2;P2;SDS_P1;SDS_P2;PMS_P1;PMS_P2;Temp;Humidity;BMP_temperature;BMP_pressure;BME280_temperature;BME280_humidity;BME280_pressure;Samples;Min_cycle;Max_cycle;Signal;HPM_P1;HPM_P2
2023/05/14 00:01:09;;;;;;;10.90;7.72;;;;;;;;;;5033038;28;20080;-66
2023/05/14 00:03:36;;;;;;;7.55;6.90;;;;;;;;;;5032961;28;20028;-66
2023/05/14 00:06:02;;;;;;;8.63;7.47;;;;;;;;;;5040219;28;20033;-66
2023/05/14 00:08:27;;;;;;;9.20;7.68;;;;;;;;;;5021846;28;20497;-66
2023/05/14 00:10:53;;;;;;;14.18;8.07;;;;;;;;;;5023753;28;20029;-66
2023/05/14 00:13:19;;;;;;;9.57;8.10;;;;;;;;;;5035799;28;20068;-66
2023/05/14 00:15:44;;;;;;;9.48;7.97;;;;;;;;;;5020034;28;20108;-66
2023/05/14 00:18:11;;;;;;;11.27;7.70;;;;;;;;;;5034252;28;20033;-66
2023/05/14 00:20:36;;;;;;;10.45;7.10;;;;;;;;;;5035229;28;20033;-66
2023/05/14 00:23:02;;;;;;;8.43;7.57;;;;;;;;;;5035458;28;20040;-66
2023/05/14 00:25:28;;;;;;;8.57;7.78;;;;;;;;;;5037975;28;20493;-66
2023/05/14 00:27:53;;;;;;;8.80;7.95;;;;;;;;;;5037568;28;20488;-66
2023/05/14 00:30:19;;;;;;;10.02;8.00;;;;;;;;;;5018894;28;20505;-66
2023/05/14 00:32:44;;;;;;;9.25;8.32;;;;;;;;;;5035954;28;20025;-66
2023/05/14 00:35:10;;;;;;;10.00;8.88;;;;;;;;;;5015373;28;20068;-66
2023/05/14 00:37:36;;;;;;;9.15;8.25;;;;;;;;;;5036217;28;20447;-66
2023/05/14 00:40:02;;;;;;;9.95;8.73;;;;;;;;;;5039156;28;20493;-66
2023/05/14 00:42:28;;;;;;;9.02;8.15;;;;;;;;;;5038497;28;20536;-64
2023/05/14 00:44:54;;;;;;;9.95;9.05;;;;;;;;;;5041223;28;20025;-66
2023/05/14 00:47:20;;;;;;;10.65;7.80;;;;;;;;;;5022233;28;20496;-66
2023/05/14 00:49:45;;;;;;;9.82;8.35;;;;;;;;;;5041457;28;20045;-66
2023/05/14 00:52:11;;;;;;;9.32;8.32;;;;;;;;;;5043658;28;20089;-66
2023/05/14 00:54:37;;;;;;;9.95;8.43;;;;;;;;;;5026875;28;20037;-66
2023/05/14 00:57:04;;;;;;;10.88;9.23;;;;;;;;;;5021376;28;20113;-66
2023/05/14 00:59:30;;;;;;;9.05;8.15;;;;;;;;;;5018291;28;20125;-66
2023/05/14 01:01:55;;;;;;;12.23;8.35;;;;;;;;;;5037203;28;20112;-66
2023/05/14 01:04:21;;;;;;;9.20;8.30;;;;;;;;;;5027228;28;20021;-66
2023/05/14 01:07:02;;;;;;;12.88;8.40;;;;;;;;;;5024688;28;20056;-66
2023/05/14 01:09:35;;;;;;;9.82;8.82;;;;;;;;;;5041333;28;20590;-66
2023/05/14 01:12:11;;;;;;;9.43;8.43;;;;;;;;;;5046051;28;20087;-66
2023/05/14 01:14:59;;;;;;;10.82;9.10;;;;;;;;;;5042116;28;20067;-66
2023/05/14 01:17:28;;;;;;;8.40;7.50;;;;;;;;;;5034882;28;20044;-65
2023/05/14 01:19:55;;;;;;;11.15;9.15;;;;;;;;;;5043920;28;20588;-65
2023/05/14 01:22:21;;;;;;;9.90;7.97;;;;;;;;;;5041240;28;20064;-65
2023/05/14 01:24:46;;;;;;;9.45;8.27;;;;;;;;;;5025016;28;20060;-65
2023/05/14 01:27:20;;;;;;;10.48;8.55;;;;;;;;;;5025914;28;20033;-65
2023/05/14 01:29:54;;;;;;;9.90;8.68;;;;;;;;;;5026223;28;20044;-66
2023/05/14 01:32:23;;;;;;;10.07;8.27;;;;;;;;;;5041308;28;20515;-65
2023/05/14 01:34:50;;;;;;;9.65;8.50;;;;;;;;;;5040799;28;20028;-65
2023/05/14 01:37:17;;;;;;;13.10;10.88;;;;;;;;;;5027386;28;20035;-66
2023/05/14 01:39:44;;;;;;;10.40;9.38;;;;;;;;;;5041653;28;20025;-66
2023/05/14 01:42:09;;;;;;;11.40;8.50;;;;;;;;;;5021273;28;20164;-66
2023/05/14 01:44:35;;;;;;;9.88;8.02;;;;;;;;;;5037839;28;20495;-66
2023/05/14 01:47:01;;;;;;;11.90;8.38;;;;;;;;;;5039265;28;20028;-66
2023/05/14 01:49:26;;;;;;;10.50;8.85;;;;;;;;;;5013405;28;20046;-66
2023/05/14 01:51:52;;;;;;;11.30;8.88;;;;;;;;;;5035862;28;20033;-66
2023/05/14 01:54:17;;;;;;;11.07;9.27;;;;;;;;;;5024342;28;20400;-66
2023/05/14 01:56:44;;;;;;;9.48;8.48;;;;;;;;;;5026037;28;20075;-66
2023/05/14 01:59:09;;;;;;;8.82;7.93;;;;;;;;;;5023983;28;20033;-66
2023/05/14 02:01:35;;;;;;;9.63;8.68;;;;;;;;;;5021279;28;20037;-66
2023/05/14 02:04:01;;;;;;;9.23;8.10;;;;;;;;;;5023722;28;20392;-66
2023/05/14 02:06:26;;;;;;;8.70;7.88;;;;;;;;;;5040365;28;20044;-65
2023/05/14 02:08:54;;;;;;;11.85;8.60;;;;;;;;;;5024769;28;20033;-66
2023/05/14 02:11:20;;;;;;;10.55;9.13;;;;;;;;;;5015928;28;20052;-65
2023/05/14 02:13:46;;;;;;;10.55;9.48;;;;;;;;;;5015519;28;20300;-66
2023/05/14 02:16:11;;;;;;;11.43;9.20;;;;;;;;;;5016420;28;20128;-66
2023/05/14 02:18:37;;;;;;;13.38;8.88;;;;;;;;;;5046493;28;20107;-66
2023/05/14 02:21:03;;;;;;;14.63;8.77;;;;;;;;;;5039052;28;20068;-66
2023/05/14 02:23:28;;;;;;;10.70;9.07;;;;;;;;;;5024660;28;20079;-66
2023/05/14 02:25:54;;;;;;;13.02;8.57;;;;;;;;;;5042611;28;20162;-66
2023/05/14 02:28:19;;;;;;;10.57;8.57;;;;;;;;;;5025058;28;20676;-66
2023/05/14 02:30:45;;;;;;;11.05;9.70;;;;;;;;;;5024459;28;20037;-66
2023/05/14 02:33:10;;;;;;;13.57;10.15;;;;;;;;;;5035869;28;20037;-66
2023/05/14 02:35:36;;;;;;;9.55;8.55;;;;;;;;;;5038474;28;20098;-66
2023/05/14 02:38:02;;;;;;;11.23;9.73;;;;;;;;;;5021583;28;20083;-66
2023/05/14 02:40:27;;;;;;;9.48;8.57;;;;;;;;;;5036480;28;20493;-66
2023/05/14 02:42:53;;;;;;;12.15;9.98;;;;;;;;;;5042277;28;20033;-66
2023/05/14 02:45:18;;;;;;;11.30;9.23;;;;;;;;;;5023998;28;20021;-66
2023/05/14 02:47:44;;;;;;;10.98;9.25;;;;;;;;;;5038553;28;20024;-66
2023/05/14 02:50:10;;;;;;;9.90;8.88;;;;;;;;;;5023312;28;20041;-65
2023/05/14 02:52:36;;;;;;;12.88;10.18;;;;;;;;;;5024331;28;20480;-66
2023/05/14 02:55:01;;;;;;;10.75;9.18;;;;;;;;;;5039135;28;20048;-66
2023/05/14 02:57:27;;;;;;;11.77;9.57;;;;;;;;;;5035950;28;20527;-66
2023/05/14 02:59:53;;;;;;;10.63;9.52;;;;;;;;;;5018456;28;20033;-66
2023/05/14 03:02:18;;;;;;;11.20;10.05;;;;;;;;;;5017991;28;20091;-66
2023/05/14 03:04:44;;;;;;;10.70;9.60;;;;;;;;;;5040924;28;20111;-66
2023/05/14 03:07:09;;;;;;;10.52;9.35;;;;;;;;;;5021785;28;20091;-66
2023/05/14 03:09:35;;;;;;;14.13;9.65;;;;;;;;;;5025393;28;20037;-66
2023/05/14 03:12:00;;;;;;;10.30;9.27;;;;;;;;;;5039475;28;20036;-66
2023/05/14 03:14:26;;;;;;;14.38;11.23;;;;;;;;;;5038166;28;20044;-66
2023/05/14 03:16:51;;;;;;;14.93;10.05;;;;;;;;;;5033258;28;20043;-66
2023/05/14 03:19:17;;;;;;;12.32;10.27;;;;;;;;;;5021080;28;20115;-66
2023/05/14 03:21:43;;;;;;;14.90;10.90;;;;;;;;;;5042530;28;20036;-66
2023/05/14 03:24:08;;;;;;;10.30;9.13;;;;;;;;;;5038667;28;20052;-66
2023/05/14 03:26:34;;;;;;;13.13;10.68;;;;;;;;;;5037217;28;20032;-66
2023/05/14 03:28:59;;;;;;;11.80;10.02;;;;;;;;;;5019086;28;20034;-66
2023/05/14 03:31:25;;;;;;;12.63;10.68;;;;;;;;;;5014250;28;20084;-67
2023/05/14 03:33:51;;;;;;;13.88;9.95;;;;;;;;;;5020632;28;20119;-67
2023/05/14 03:36:16;;;;;;;11.82;10.02;;;;;;;;;;5018260;28;20045;-67
2023/05/14 03:38:42;;;;;;;10.98;9.20;;;;;;;;;;5034484;28;20041;-67
2023/05/14 03:41:07;;;;;;;10.07;8.73;;;;;;;;;;5039327;28;20055;-67
2023/05/14 03:43:33;;;;;;;18.67;10.52;;;;;;;;;;5039089;28;20044;-67
2023/05/14 03:45:58;;;;;;;11.57;9.45;;;;;;;;;;5023726;28;20032;-67
2023/05/14 03:48:24;;;;;;;13.13;8.95;;;;;;;;;;5021901;28;20037;-67
2023/05/14 03:50:51;;;;;;;11.45;9.48;;;;;;;;;;5023185;28;20079;-67
2023/05/14 03:53:16;;;;;;;15.85;10.00;;;;;;;;;;5040646;28;20041;-67
2023/05/14 03:55:44;;;;;;;13.55;10.98;;;;;;;;;;5024522;28;20035;-66
2023/05/14 03:58:12;;;;;;;11.80;10.10;;;;;;;;;;5021672;28;20112;-66
2023/05/14 04:00:42;;;;;;;12.52;11.00;;;;;;;;;;5018910;28;20092;-66
2023/05/14 04:03:09;;;;;;;11.82;9.70;;;;;;;;;;5020394;28;20091;-68
2023/05/14 04:05:35;;;;;;;11.95;9.55;;;;;;;;;;5033077;28;20041;-66
2023/05/14 04:08:01;;;;;;;10.73;8.93;;;;;;;;;;5021743;28;20033;-66
2023/05/14 04:10:27;;;;;;;10.98;8.98;;;;;;;;;;5024448;28;20087;-65
2023/05/14 04:12:54;;;;;;;11.45;9.60;;;;;;;;;;5015181;28;20035;-66
2023/05/14 04:15:20;;;;;;;15.63;10.65;;;;;;;;;;5021564;28;20041;-66
2023/05/14 04:17:45;;;;;;;10.73;8.82;;;;;;;;;;5015240;28;20033;-67
2023/05/14 04:20:11;;;;;;;14.93;9.82;;;;;;;;;;5023338;28;20029;-68
2023/05/14 04:22:37;;;;;;;15.80;9.77;;;;;;;;;;5033330;28;20885;-67
2023/05/14 04:25:02;;;;;;;10.38;8.77;;;;;;;;;;5032846;28;20110;-67
2023/05/14 04:27:28;;;;;;;11.35;8.68;;;;;;;;;;5038243;28;20040;-66
2023/05/14 04:29:54;;;;;;;9.82;8.80;;;;;;;;;;5039193;28;20488;-66
2023/05/14 04:32:20;;;;;;;13.55;9.25;;;;;;;;;;5034933;28;20104;-66
2023/05/14 04:34:46;;;;;;;12.60;10.10;;;;;;;;;;5035580;28;20492;-67
2023/05/14 04:37:11;;;;;;;10.45;9.15;;;;;;;;;;5035923;28;20025;-66
2023/05/14 04:39:37;;;;;;;10.55;9.48;;;;;;;;;;5039616;28;20037;-66
2023/05/14 04:42:03;;;;;;;10.00;9.00;;;;;;;;;;5037548;28;20098;-67
2023/05/14 04:44:29;;;;;;;10.75;9.00;;;;;;;;;;5042375;28;20040;-66
2023/05/14 04:46:55;;;;;;;12.93;9.13;;;;;;;;;;5038596;28;20045;-66
2023/05/14 04:49:20;;;;;;;11.68;9.57;;;;;;;;;;5034182;28;20029;-66
2023/05/14 04:51:46;;;;;;;13.93;9.32;;;;;;;;;;5039782;28;20029;-66
2023/05/14 04:54:12;;;;;;;10.40;8.68;;;;;;;;;;5042185;28;20112;-67
2023/05/14 04:56:38;;;;;;;11.52;9.20;;;;;;;;;;5032739;28;20579;-67
2023/05/14 04:59:03;;;;;;;9.95;8.95;;;;;;;;;;5037533;28;20534;-67
2023/05/14 05:01:29;;;;;;;10.95;8.68;;;;;;;;;;5038573;28;20044;-66
2023/05/14 05:03:56;;;;;;;9.73;8.68;;;;;;;;;;5034843;28;20436;-66
2023/05/14 05:06:22;;;;;;;8.75;7.90;;;;;;;;;;5033137;28;20491;-66
2023/05/14 05:08:47;;;;;;;10.98;9.27;;;;;;;;;;5038648;28;20039;-66
2023/05/14 05:11:13;;;;;;;12.40;8.63;;;;;;;;;;5036424;28;20040;-66
2023/05/14 05:13:38;;;;;;;10.60;8.02;;;;;;;;;;5037353;28;20090;-66
2023/05/14 05:16:04;;;;;;;12.25;9.65;;;;;;;;;;5035397;28;20033;-67
2023/05/14 05:18:30;;;;;;;8.85;7.53;;;;;;;;;;5040821;28;20638;-67
2023/05/14 05:20:56;;;;;;;10.88;8.98;;;;;;;;;;5038045;28;20036;-67
2023/05/14 05:23:21;;;;;;;10.15;8.45;;;;;;;;;;5036774;28;20136;-67
2023/05/14 05:25:47;;;;;;;9.32;8.32;;;;;;;;;;5041976;28;20063;-66
2023/05/14 05:28:13;;;;;;;9.68;8.52;;;;;;;;;;5036830;28;20040;-66
2023/05/14 05:30:38;;;;;;;10.75;8.15;;;;;;;;;;5033319;28;20041;-67
2023/05/14 05:33:04;;;;;;;9.15;8.25;;;;;;;;;;5040054;28;20033;-66
2023/05/14 05:35:29;;;;;;;8.75;7.93;;;;;;;;;;5047375;28;20104;-67
2023/05/14 05:37:56;;;;;;;9.40;7.13;;;;;;;;;;5036621;28;20095;-67
2023/05/14 05:40:22;;;;;;;11.43;8.35;;;;;;;;;;5034378;28;20036;-66
2023/05/14 05:42:47;;;;;;;9.05;7.97;;;;;;;;;;5041823;28;20029;-67
2023/05/14 05:45:13;;;;;;;8.85;7.60;;;;;;;;;;5042834;28;20728;-66
2023/05/14 05:47:38;;;;;;;12.02;7.80;;;;;;;;;;5037646;28;20029;-66
2023/05/14 05:50:05;;;;;;;7.63;6.82;;;;;;;;;;5036930;28;20025;-67
2023/05/14 05:52:30;;;;;;;9.80;7.78;;;;;;;;;;5039255;28;20056;-67
2023/05/14 05:54:56;;;;;;;10.90;8.65;;;;;;;;;;5037307;28;20524;-66
2023/05/14 05:57:22;;;;;;;10.57;8.60;;;;;;;;;;5039173;28;20091;-67
2023/05/14 05:59:48;;;;;;;10.50;8.02;;;;;;;;;;5033609;28;20108;-67
2023/05/14 06:02:13;;;;;;;11.60;9.15;;;;;;;;;;5034928;28;20121;-67
2023/05/14 06:04:39;;;;;;;7.82;7.15;;;;;;;;;;5044256;28;20028;-67
2023/05/14 06:07:04;;;;;;;9.10;7.65;;;;;;;;;;5045213;28;20037;-66
2023/05/14 06:09:30;;;;;;;9.70;8.70;;;;;;;;;;5038533;28;20554;-67
2023/05/14 06:11:55;;;;;;;9.38;7.95;;;;;;;;;;5037990;28;20543;-67
2023/05/14 06:14:21;;;;;;;10.45;8.38;;;;;;;;;;5039396;28;20036;-66
2023/05/14 06:16:47;;;;;;;9.23;7.53;;;;;;;;;;5040102;28;20507;-66
2023/05/14 06:19:12;;;;;;;8.95;8.05;;;;;;;;;;5038094;28;20061;-66
2023/05/14 06:21:38;;;;;;;9.15;8.18;;;;;;;;;;5041936;28;20066;-66
2023/05/14 06:24:04;;;;;;;10.60;8.38;;;;;;;;;;5044776;28;20504;-66
2023/05/14 06:26:29;;;;;;;10.52;8.13;;;;;;;;;;5040620;28;21638;-66
2023/05/14 06:28:55;;;;;;;14.07;9.00;;;;;;;;;;5039633;28;20066;-66
2023/05/14 06:31:20;;;;;;;10.93;8.93;;;;;;;;;;5040962;28;20488;-66
2023/05/14 06:33:46;;;;;;;11.50;10.00;;;;;;;;;;5037074;28;21390;-66
2023/05/14 06:36:11;;;;;;;10.23;8.77;;;;;;;;;;5038364;28;20112;-66
2023/05/14 06:38:37;;;;;;;14.27;9.52;;;;;;;;;;5041523;28;20064;-66
2023/05/14 06:41:02;;;;;;;12.18;9.27;;;;;;;;;;5037657;28;20075;-66
2023/05/14 06:43:28;;;;;;;12.00;10.00;;;;;;;;;;5041163;28;20400;-66
2023/05/14 06:45:54;;;;;;;13.48;11.32;;;;;;;;;;5044960;28;20484;-66
2023/05/14 06:48:19;;;;;;;13.63;11.20;;;;;;;;;;5038796;28;20124;-66
2023/05/14 06:50:46;;;;;;;11.68;9.70;;;;;;;;;;5044228;28;20036;-65
2023/05/14 06:53:12;;;;;;;15.90;10.27;;;;;;;;;;5032713;28;20521;-67
2023/05/14 06:55:38;;;;;;;12.43;8.85;;;;;;;;;;5040453;28;20029;-67
2023/05/14 06:58:07;;;;;;;11.02;9.93;;;;;;;;;;5039280;28;20512;-66
2023/05/14 07:00:33;;;;;;;10.13;7.95;;;;;;;;;;5033859;28;20152;-66
2023/05/14 07:02:58;;;;;;;10.70;8.65;;;;;;;;;;5035337;28;20112;-66
2023/05/14 07:05:24;;;;;;;10.13;8.30;;;;;;;;;;5040557;28;20037;-66
2023/05/14 07:07:50;;;;;;;10.85;9.15;;;;;;;;;;5041910;28;20059;-66
2023/05/14 07:10:15;;;;;;;9.32;8.32;;;;;;;;;;5033621;28;20038;-66
2023/05/14 07:12:41;;;;;;;14.05;9.57;;;;;;;;;;5039064;28;20024;-66
2023/05/14 07:15:07;;;;;;;10.77;8.77;;;;;;;;;;5037281;28;20116;-66
2023/05/14 07:17:33;;;;;;;10.20;8.90;;;;;;;;;;5037075;28;20033;-66
2023/05/14 07:19:58;;;;;;;10.50;8.65;;;;;;;;;;5039240;28;20107;-66
2023/05/14 07:22:24;;;;;;;10.35;8.43;;;;;;;;;;5044120;28;20064;-66
2023/05/14 07:24:49;;;;;;;13.70;9.35;;;;;;;;;;5040290;28;20107;-66
2023/05/14 07:27:16;;;;;;;10.77;8.57;;;;;;;;;;5036547;28;20044;-66
2023/05/14 07:29:42;;;;;;;10.65;8.63;;;;;;;;;;5037512;28;20078;-66
2023/05/14 07:32:07;;;;;;;10.57;8.82;;;;;;;;;;5036511;28;20041;-66
2023/05/14 07:34:33;;;;;;;11.55;8.40;;;;;;;;;;5032040;28;20116;-65
2023/05/14 07:36:59;;;;;;;9.68;8.68;;;;;;;;;;5029858;28;20037;-65
2023/05/14 07:39:24;;;;;;;8.90;8.00;;;;;;;;;;5034056;28;20098;-66
2023/05/14 07:41:50;;;;;;;8.95;7.68;;;;;;;;;;5038452;28;20052;-66
2023/05/14 07:44:15;;;;;;;10.00;7.78;;;;;;;;;;5026715;28;20037;-66
2023/05/14 07:46:41;;;;;;;10.68;8.95;;;;;;;;;;5032984;28;20060;-66
2023/05/14 07:49:07;;;;;;;8.88;7.90;;;;;;;;;;5036707;28;20411;-66
2023/05/14 07:51:32;;;;;;;9.32;8.27;;;;;;;;;;5033355;28;20041;-66
2023/05/14 07:53:58;;;;;;;11.35;10.05;;;;;;;;;;5036369;28;20572;-66
2023/05/14 07:56:24;;;;;;;10.57;9.38;;;;;;;;;;5038281;28;20676;-66
2023/05/14 07:58:50;;;;;;;9.60;8.32;;;;;;;;;;5038251;28;20041;-66
2023/05/14 08:01:16;;;;;;;13.00;9.02;;;;;;;;;;5035644;28;20576;-66
2023/05/14 08:03:41;;;;;;;9.77;8.27;;;;;;;;;;5036157;28;20559;-66
2023/05/14 08:06:07;;;;;;;11.77;8.40;;;;;;;;;;5039709;28;20033;-66
2023/05/14 08:08:32;;;;;;;10.55;9.23;;;;;;;;;;5039657;28;21573;-66
2023/05/14 08:10:58;;;;;;;9.93;8.77;;;;;;;;;;5033282;28;20041;-66
2023/05/14 08:13:24;;;;;;;9.23;8.30;;;;;;;;;;5037129;28;20040;-66
2023/05/14 08:15:50;;;;;;;9.85;8.52;;;;;;;;;;5035371;28;20081;-66
2023/05/14 08:18:15;;;;;;;8.77;7.88;;;;;;;;;;5032262;28;20029;-66
2023/05/14 08:20:41;;;;;;;9.57;7.68;;;;;;;;;;5037981;28;20796;-66
2023/05/14 08:23:07;;;;;;;8.77;7.78;;;;;;;;;;5035928;28;20044;-66
2023/05/14 08:25:32;;;;;;;8.57;7.68;;;;;;;;;;5036203;28;20108;-66
2023/05/14 08:27:58;;;;;;;8.63;7.82;;;;;;;;;;5036220;28;20107;-67
2023/05/14 08:30:24;;;;;;;9.77;7.72;;;;;;;;;;5036622;28;20039;-67
2023/05/14 08:32:50;;;;;;;9.73;7.55;;;;;;;;;;5036793;28;20128;-67
2023/05/14 08:35:16;;;;;;;9.55;7.40;;;;;;;;;;5037968;28;20041;-67
2023/05/14 08:37:42;;;;;;;13.50;7.22;;;;;;;;;;5033066;28;20087;-67
2023/05/14 08:40:08;;;;;;;8.70;7.63;;;;;;;;;;5034758;28;20520;-66
2023/05/14 08:42:37;;;;;;;9.00;7.63;;;;;;;;;;5033585;28;20667;-67
2023/05/14 08:45:04;;;;;;;8.20;7.40;;;;;;;;;;5038589;28;20029;-66
2023/05/14 08:47:30;;;;;;;9.02;7.53;;;;;;;;;;5036524;28;20044;-67
2023/05/14 08:50:05;;;;;;;23.02;11.93;;;;;;;;;;5040295;28;20048;-67
2023/05/14 08:52:31;;;;;;;8.98;8.07;;;;;;;;;;5037473;28;20060;-67
2023/05/14 08:55:03;;;;;;;10.98;7.50;;;;;;;;;;5039377;28;20033;-67
2023/05/14 08:57:32;;;;;;;11.52;7.40;;;;;;;;;;5040191;28;20190;-67
2023/05/14 08:59:58;;;;;;;;;;;;;;;;;;5036870;28;20033;-67
2023/05/14 09:02:29;;;;;;;7.30;6.57;;;;;;;;;;5034667;28;19923;-66
2023/05/14 09:04:57;;;;;;;7.88;6.93;;;;;;;;;;5042881;28;20037;-66
2023/05/14 09:07:23;;;;;;;9.80;8.80;;;;;;;;;;5043565;28;20048;-66
2023/05/14 09:09:50;;;;;;;8.43;7.57;;;;;;;;;;5039963;28;20039;-65
2023/05/14 09:12:16;;;;;;;11.35;8.38;;;;;;;;;;5039728;28;20029;-66
2023/05/14 09:14:43;;;;;;;8.80;7.90;;;;;;;;;;5042406;28;20033;-66
2023/05/14 09:17:11;;;;;;;9.50;7.97;;;;;;;;;;5025964;28;20040;-66
2023/05/14 09:19:41;;;;;;;8.27;7.03;;;;;;;;;;5024832;28;20041;-67
2023/05/14 09:22:14;;;;;;;9.23;7.40;;;;;;;;;;5024852;28;20141;-66
2023/05/14 09:24:40;;;;;;;7.65;6.95;;;;;;;;;;5023932;28;20041;-66
2023/05/14 09:27:08;;;;;;;8.27;7.22;;;;;;;;;;5034232;28;20112;-66
2023/05/14 09:29:34;;;;;;;8.43;7.45;;;;;;;;;;5038330;28;20047;-66
2023/05/14 09:32:04;;;;;;;10.10;8.38;;;;;;;;;;5042644;28;20396;-66
2023/05/14 09:34:32;;;;;;;8.95;8.00;;;;;;;;;;5041185;28;20079;-66
2023/05/14 09:37:08;;;;;;;8.85;7.95;;;;;;;;;;5033838;28;20090;-66
2023/05/14 09:39:36;;;;;;;9.40;7.97;;;;;;;;;;5037699;28;20044;-66
2023/05/14 09:42:01;;;;;;;9.63;7.40;;;;;;;;;;5038766;28;20116;-66
2023/05/14 09:44:28;;;;;;;8.52;7.70;;;;;;;;;;5033476;28;20115;-66
2023/05/14 09:46:54;;;;;;;8.07;7.28;;;;;;;;;;5036535;28;20072;-66
2023/05/14 09:49:19;;;;;;;10.23;6.90;;;;;;;;;;5039905;28;20091;-66
2023/05/14 09:51:45;;;;;;;9.85;7.07;;;;;;;;;;5041954;28;20531;-66
2023/05/14 09:54:11;;;;;;;8.02;7.07;;;;;;;;;;5035133;28;20658;-67
2023/05/14 09:56:38;;;;;;;7.03;6.40;;;;;;;;;;5039357;28;20036;-67
2023/05/14 09:59:04;;;;;;;7.43;6.72;;;;;;;;;;5039767;28;20396;-67
2023/05/14 10:01:31;;;;;;;7.82;7.03;;;;;;;;;;5041316;28;20056;-67
2023/05/14 10:03:57;;;;;;;7.75;7.05;;;;;;;;;;5032661;28;20025;-67
2023/05/14 10:06:35;;;;;;;8.00;7.18;;;;;;;;;;5042098;28;20030;-67
2023/05/14 10:09:10;;;;;;;8.35;7.43;;;;;;;;;;5040687;28;20112;-67
2023/05/14 10:11:37;;;;;;;7.63;6.93;;;;;;;;;;5043187;28;20036;-68
2023/05/14 10:14:25;;;;;;;8.50;6.88;;;;;;;;;;5031735;28;20037;-67
2023/05/14 10:16:52;;;;;;;7.80;7.00;;;;;;;;;;5037815;28;20123;-67
2023/05/14 10:19:20;;;;;;;9.40;7.82;;;;;;;;;;5022356;28;20344;-67
2023/05/14 10:21:54;;;;;;;6.55;5.55;;;;;;;;;;5037652;28;20521;-67
2023/05/14 10:24:21;;;;;;;6.60;6.00;;;;;;;;;;5034292;28;20047;-67
2023/05/14 10:26:47;;;;;;;8.93;7.13;;;;;;;;;;5043519;28;20038;-67
2023/05/14 10:29:13;;;;;;;8.98;6.40;;;;;;;;;;5038828;28;20147;-67
2023/05/14 10:31:52;;;;;;;6.70;5.97;;;;;;;;;;5034180;28;20057;-67
2023/05/14 10:34:39;;;;;;;7.20;6.50;;;;;;;;;;5039821;28;20048;-67
2023/05/14 10:37:08;;;;;;;7.15;6.45;;;;;;;;;;5034721;28;20029;-67
2023/05/14 10:39:46;;;;;;;6.15;5.65;;;;;;;;;;5039176;28;20083;-68
2023/05/14 10:42:16;;;;;;;6.35;5.35;;;;;;;;;;5036564;28;20409;-67
2023/05/14 10:44:54;;;;;;;6.55;5.82;;;;;;;;;;5034596;28;20065;-68
2023/05/14 10:47:21;;;;;;;6.93;5.85;;;;;;;;;;5035322;28;20608;-67
2023/05/14 10:49:51;;;;;;;6.70;6.00;;;;;;;;;;5036162;28;20032;-67
2023/05/14 10:52:18;;;;;;;6.60;6.00;;;;;;;;;;5038737;28;20033;-67
2023/05/14 10:54:58;;;;;;;6.45;5.82;;;;;;;;;;5037546;28;20094;-67
2023/05/14 10:57:26;;;;;;;7.22;6.15;;;;;;;;;;5039673;28;20124;-67
2023/05/14 10:59:54;;;;;;;8.32;5.93;;;;;;;;;;5038225;28;20033;-68
2023/05/14 11:02:22;;;;;;;6.65;5.82;;;;;;;;;;5040567;28;20503;-67
2023/05/14 11:05:17;;;;;;;5.95;4.47;;;;;;;;;;5035385;28;20397;-68
2023/05/14 11:07:48;;;;;;;5.75;5.15;;;;;;;;;;4941848;29;20118;-68
2023/05/14 11:10:14;;;;;;;5.90;5.40;;;;;;;;;;4935935;29;20067;-67
2023/05/14 11:12:45;;;;;;;6.53;5.53;;;;;;;;;;4931135;29;20043;-68
2023/05/14 11:15:13;;;;;;;5.65;5.15;;;;;;;;;;4935665;29;20541;-67
2023/05/14 11:17:40;;;;;;;6.30;5.03;;;;;;;;;;4937103;29;20142;-68
2023/05/14 11:20:07;;;;;;;5.13;4.68;;;;;;;;;;4936294;29;20050;-67
2023/05/14 11:22:34;;;;;;;5.68;5.18;;;;;;;;;;4941232;29;20103;-68
2023/05/14 11:25:00;;;;;;;5.40;5.00;;;;;;;;;;4937825;29;20137;-67
2023/05/14 11:27:25;;;;;;;5.15;4.65;;;;;;;;;;4936230;29;20609;-67
2023/05/14 11:29:51;;;;;;;5.40;4.50;;;;;;;;;;4924750;29;20589;-67
2023/05/14 11:32:18;;;;;;;5.70;5.10;;;;;;;;;;4935358;29;20055;-67
2023/05/14 11:34:45;;;;;;;4.78;4.38;;;;;;;;;;4942162;29;20040;-67
2023/05/14 11:37:12;;;;;;;4.82;4.43;;;;;;;;;;4920481;29;20039;-67
2023/05/14 11:39:44;;;;;;;5.15;4.70;;;;;;;;;;4937574;29;20078;-67
2023/05/14 11:42:12;;;;;;;5.20;4.65;;;;;;;;;;4939111;29;20062;-68
2023/05/14 11:44:38;;;;;;;5.10;4.70;;;;;;;;;;5012307;28;20064;-67
2023/05/14 11:47:04;;;;;;;9.30;5.15;;;;;;;;;;5036190;28;20065;-68
2023/05/14 11:49:30;;;;;;;9.00;5.03;;;;;;;;;;5032788;28;20311;-67
2023/05/14 11:51:57;;;;;;;4.65;4.30;;;;;;;;;;5038274;28;20030;-67
2023/05/14 11:54:27;;;;;;;4.95;4.55;;;;;;;;;;5039098;28;20034;-68
2023/05/14 11:56:55;;;;;;;5.05;4.65;;;;;;;;;;5035985;28;20117;-68
2023/05/14 11:59:26;;;;;;;6.68;4.70;;;;;;;;;;5036480;28;20453;-67
2023/05/14 12:01:52;;;;;;;5.57;5.18;;;;;;;;;;5038702;28;20492;-67
2023/05/14 12:04:21;;;;;;;6.20;5.60;;;;;;;;;;5042034;28;20068;-68
2023/05/14 12:06:50;;;;;;;5.55;5.13;;;;;;;;;;5033425;28;20030;-67
2023/05/14 12:09:18;;;;;;;5.70;5.28;;;;;;;;;;5036441;28;20087;-68
2023/05/14 12:11:48;;;;;;;5.60;5.20;;;;;;;;;;5041369;28;20037;-67
2023/05/14 12:14:15;;;;;;;5.70;5.20;;;;;;;;;;5034181;28;20040;-67
2023/05/14 12:16:43;;;;;;;5.45;5.05;;;;;;;;;;5036983;28;20083;-67
2023/05/14 12:19:12;;;;;;;5.32;4.85;;;;;;;;;;5034104;28;20044;-67
2023/05/14 12:21:39;;;;;;;5.35;4.82;;;;;;;;;;5037082;28;20045;-67
2023/05/14 12:24:12;;;;;;;5.40;4.90;;;;;;;;;;5036906;28;20033;-67
2023/05/14 12:26:38;;;;;;;5.47;5.07;;;;;;;;;;5041652;28;20392;-67
2023/05/14 12:29:05;;;;;;;6.90;4.90;;;;;;;;;;5038370;28;20180;-67
2023/05/14 12:31:35;;;;;;;5.72;5.18;;;;;;;;;;5036865;28;20499;-67
2023/05/14 12:34:04;;;;;;;4.90;4.43;;;;;;;;;;5038323;28;20040;-67
2023/05/14 12:36:31;;;;;;;4.50;4.20;;;;;;;;;;5036194;28;20512;-67
2023/05/14 12:39:02;;;;;;;5.10;4.72;;;;;;;;;;5038242;28;20755;-67
2023/05/14 12:41:31;;;;;;;4.90;4.50;;;;;;;;;;5043808;28;20594;-67
2023/05/14 12:43:58;;;;;;;6.28;5.68;;;;;;;;;;5040372;28;20031;-67
2023/05/14 12:46:26;;;;;;;5.57;5.18;;;;;;;;;;5024211;28;20076;-67
2023/05/14 12:48:55;;;;;;;4.97;4.63;;;;;;;;;;5041587;28;20044;-67
2023/05/14 12:51:21;;;;;;;;;;;;;;;;;;5043171;28;20029;-67
2023/05/14 12:53:46;;;;;;;5.75;4.95;;;;;;;;;;5042021;28;20297;-67
2023/05/14 12:56:12;;;;;;;5.07;4.68;;;;;;;;;;5041720;28;20025;-67
2023/05/14 12:58:38;;;;;;;5.15;4.75;;;;;;;;;;5041299;28;20151;-67
2023/05/14 13:01:04;;;;;;;5.45;5.05;;;;;;;;;;5041576;28;20029;-67
2023/05/14 13:03:30;;;;;;;5.00;4.60;;;;;;;;;;5047061;28;20041;-68
2023/05/14 13:05:55;;;;;;;5.47;5.07;;;;;;;;;;5040064;28;20101;-67
2023/05/14 13:08:23;;;;;;;5.63;5.22;;;;;;;;;;5040348;28;20067;-68
2023/05/14 13:10:53;;;;;;;6.38;5.30;;;;;;;;;;5040581;28;20033;-67
2023/05/14 13:13:19;;;;;;;7.45;6.10;;;;;;;;;;5041757;28;20060;-67
2023/05/14 13:15:45;;;;;;;5.63;5.13;;;;;;;;;;5042816;28;20755;-67
2023/05/14 13:18:15;;;;;;;5.35;4.88;;;;;;;;;;5039221;28;20121;-68
2023/05/14 13:20:41;;;;;;;6.75;5.03;;;;;;;;;;5041090;28;20029;-68
2023/05/14 13:23:06;;;;;;;5.65;5.25;;;;;;;;;;5044932;28;20463;-67
2023/05/14 13:25:32;;;;;;;5.25;4.88;;;;;;;;;;5041406;28;20032;-67
2023/05/14 13:27:58;;;;;;;5.50;5.10;;;;;;;;;;5039926;28;20044;-67
2023/05/14 13:30:24;;;;;;;5.68;5.28;;;;;;;;;;5038238;28;20033;-67
2023/05/14 13:32:49;;;;;;;5.57;5.07;;;;;;;;;;5044471;28;20037;-67
2023/05/14 13:35:15;;;;;;;5.30;4.82;;;;;;;;;;5040801;28;20108;-67
2023/05/14 13:37:44;;;;;;;6.07;4.95;;;;;;;;;;5045783;28;20037;-67
2023/05/14 13:40:10;;;;;;;5.18;4.68;;;;;;;;;;5044825;28;20029;-67
2023/05/14 13:42:38;;;;;;;5.50;5.10;;;;;;;;;;5039654;28;20032;-68
2023/05/14 13:45:05;;;;;;;5.80;5.30;;;;;;;;;;5042875;28;20055;-67
2023/05/14 13:47:31;;;;;;;5.70;5.15;;;;;;;;;;5042234;28;20115;-68
2023/05/14 13:49:57;;;;;;;5.82;5.22;;;;;;;;;;5041415;28;20029;-68
2023/05/14 13:52:22;;;;;;;5.90;5.40;;;;;;;;;;5036760;28;20033;-68
2023/05/14 13:54:48;;;;;;;5.07;4.70;;;;;;;;;;5040032;28;20052;-68
2023/05/14 13:57:14;;;;;;;4.90;4.60;;;;;;;;;;5025489;28;20112;-68
2023/05/14 13:59:40;;;;;;;4.82;4.53;;;;;;;;;;5024180;28;20040;-68
2023/05/14 14:02:06;;;;;;;5.35;4.95;;;;;;;;;;5020469;28;20029;-68
2023/05/14 14:04:32;;;;;;;5.25;4.75;;;;;;;;;;5044853;28;20041;-68
2023/05/14 14:06:58;;;;;;;5.25;4.85;;;;;;;;;;5025510;28;20033;-68
2023/05/14 14:09:23;;;;;;;5.45;4.95;;;;;;;;;;5039066;28;20045;-68
2023/05/14 14:11:49;;;;;;;5.20;4.90;;;;;;;;;;5037951;28;20029;-68
2023/05/14 14:14:15;;;;;;;5.50;5.10;;;;;;;;;;5043333;28;20120;-67
2023/05/14 14:16:41;;;;;;;4.93;4.63;;;;;;;;;;5037749;28;20025;-68
2023/05/14 14:19:07;;;;;;;5.18;4.78;;;;;;;;;;5038814;28;20465;-68
2023/05/14 14:21:34;;;;;;;5.00;4.70;;;;;;;;;;5039788;28;20479;-68
2023/05/14 14:24:00;;;;;;;4.90;4.60;;;;;;;;;;5045085;28;20075;-68
2023/05/14 14:26:26;;;;;;;5.07;4.70;;;;;;;;;;5041246;28;20037;-68
2023/05/14 14:28:52;;;;;;;5.65;5.25;;;;;;;;;;5027287;28;20051;-68
2023/05/14 14:31:19;;;;;;;5.47;5.07;;;;;;;;;;5041223;28;20026;-68
2023/05/14 14:33:45;;;;;;;5.50;5.00;;;;;;;;;;5042287;28;20048;-68
2023/05/14 14:36:10;;;;;;;4.93;4.63;;;;;;;;;;5039503;28;20033;-68